createdAt,value
2022-10-10T00:00:14.249Z,2.13
2022-10-10T00:02:41.330Z,2.37
2022-10-10T00:05:08.643Z,2.17
2022-10-10T00:07:35.793Z,2.03
2022-10-10T00:10:02.902Z,1.97
2022-10-10T00:12:30.039Z,2.00
2022-10-10T00:14:57.212Z,2.07
2022-10-10T00:17:24.292Z,2.20
2022-10-10T00:19:51.385Z,2.10
2022-10-10T00:22:18.484Z,1.90
2022-10-10T00:24:45.577Z,2.37
2022-10-10T00:27:12.689Z,2.10
2022-10-10T00:29:39.768Z,1.87
2022-10-10T00:32:06.876Z,2.03
2022-10-10T00:34:33.939Z,2.07
2022-10-10T00:37:00.998Z,1.93
2022-10-10T00:39:28.154Z,2.40
2022-10-10T00:41:55.339Z,2.03
2022-10-10T00:44:22.412Z,2.37
2022-10-10T00:46:49.626Z,2.17
2022-10-10T00:49:18.472Z,1.80
2022-10-10T00:51:47.304Z,2.10
2022-10-10T00:54:16.957Z,2.47
2022-10-10T00:56:56.103Z,2.40
2022-10-10T00:59:23.966Z,2.20
2022-10-10T01:01:51.289Z,2.33
2022-10-10T01:04:33.660Z,1.87
2022-10-10T01:07:01.517Z,2.20
2022-10-10T01:09:29.094Z,2.17
2022-10-10T01:12:01.771Z,2.00
2022-10-10T01:14:47.932Z,1.90
2022-10-10T01:17:33.260Z,2.40
2022-10-10T01:20:00.311Z,2.70
2022-10-10T01:22:31.524Z,2.10
2022-10-10T01:25:15.036Z,2.10
2022-10-10T01:27:48.175Z,2.17
2022-10-10T01:30:17.198Z,2.10
2022-10-10T01:32:54.821Z,1.90
2022-10-10T01:35:32.301Z,2.27
2022-10-10T01:38:05.384Z,2.10
2022-10-10T01:40:52.707Z,2.37
2022-10-10T01:43:19.880Z,2.10
2022-10-10T01:45:51.350Z,2.43
2022-10-10T01:48:20.288Z,2.17
2022-10-10T01:51:06.076Z,2.30
2022-10-10T01:53:39.942Z,2.30
2022-10-10T01:56:30.425Z,2.20
2022-10-10T01:59:16.481Z,2.20
2022-10-10T02:01:46.555Z,2.17
2022-10-10T02:04:21.015Z,2.40
2022-10-10T02:06:51.644Z,2.43
2022-10-10T02:09:22.303Z,2.40
2022-10-10T02:11:50.289Z,2.37
2022-10-10T02:14:22.818Z,2.30
2022-10-10T02:16:51.592Z,2.50
2022-10-10T02:19:20.616Z,2.50
2022-10-10T02:21:48.571Z,2.77
2022-10-10T02:24:16.259Z,2.30
2022-10-10T02:26:45.587Z,2.93
2022-10-10T02:29:16.636Z,2.23
2022-10-10T02:31:50.716Z,2.37
2022-10-10T02:34:19.233Z,2.90
2022-10-10T02:36:49.473Z,2.10
2022-10-10T02:39:18.324Z,2.47
2022-10-10T02:41:47.207Z,2.23
2022-10-10T02:44:14.982Z,2.80
2022-10-10T02:46:42.264Z,2.33
2022-10-10T02:49:09.743Z,2.40
2022-10-10T02:51:36.865Z,2.70
2022-10-10T02:54:04.002Z,2.53
2022-10-10T02:56:31.208Z,2.40
2022-10-10T02:58:58.339Z,2.50
2022-10-10T03:01:25.489Z,3.20
2022-10-10T03:03:52.600Z,2.40
2022-10-10T03:06:19.663Z,2.53
2022-10-10T03:08:46.779Z,2.70
2022-10-10T03:11:13.896Z,2.50
2022-10-10T03:13:41.007Z,2.50
2022-10-10T03:16:08.128Z,2.67
2022-10-10T03:18:35.199Z,2.40
2022-10-10T03:21:02.310Z,2.77
2022-10-10T03:23:29.457Z,2.47
2022-10-10T03:25:56.574Z,2.27
2022-10-10T03:28:23.817Z,2.30
2022-10-10T03:30:50.922Z,2.87
2022-10-10T03:33:18.084Z,2.40
2022-10-10T03:35:45.197Z,2.23
2022-10-10T03:38:13.635Z,2.47
2022-10-10T03:40:41.433Z,2.53
2022-10-10T03:43:09.375Z,2.73
2022-10-10T03:45:36.522Z,2.37
2022-10-10T03:48:04.005Z,2.37
2022-10-10T03:50:31.191Z,2.70
2022-10-10T03:52:58.325Z,2.73
2022-10-10T03:55:25.394Z,2.10
2022-10-10T03:57:52.463Z,2.40
2022-10-10T04:00:19.567Z,2.87
2022-10-10T04:02:46.711Z,2.37
2022-10-10T04:05:14.009Z,2.30
2022-10-10T04:07:42.311Z,2.30
2022-10-10T04:10:09.952Z,2.50
2022-10-10T04:12:37.059Z,2.50
2022-10-10T04:15:04.229Z,2.27
2022-10-10T04:17:31.277Z,2.37
2022-10-10T04:19:58.363Z,2.17
2022-10-10T04:22:25.439Z,2.30
2022-10-10T04:24:52.520Z,2.60
2022-10-10T04:27:19.652Z,2.40
2022-10-10T04:29:46.736Z,2.50
2022-10-10T04:32:13.820Z,2.67
2022-10-10T04:34:40.880Z,2.47
2022-10-10T04:37:08.044Z,2.53
2022-10-10T04:39:35.133Z,2.73
2022-10-10T04:42:02.287Z,2.90
2022-10-10T04:44:29.431Z,2.60
2022-10-10T04:46:56.508Z,2.30
2022-10-10T04:49:23.619Z,2.60
2022-10-10T04:51:50.698Z,2.70
2022-10-10T04:54:17.821Z,2.60
2022-10-10T04:56:45.958Z,2.50
2022-10-10T04:59:13.064Z,2.80
2022-10-10T05:01:40.233Z,2.70
2022-10-10T05:04:07.327Z,2.80
2022-10-10T05:06:34.418Z,3.03
2022-10-10T05:09:01.532Z,3.03
2022-10-10T05:11:28.601Z,3.50
2022-10-10T05:13:55.876Z,3.03
2022-10-10T05:16:23.308Z,3.30
2022-10-10T05:18:50.413Z,3.30
2022-10-10T05:21:17.688Z,2.90
2022-10-10T05:23:44.814Z,2.93
2022-10-10T05:26:12.159Z,2.57
2022-10-10T05:28:39.484Z,3.07
2022-10-10T05:31:07.071Z,3.17
2022-10-10T05:33:34.983Z,3.00
2022-10-10T05:36:12.709Z,2.87
2022-10-10T05:38:41.051Z,3.20
2022-10-10T05:41:09.161Z,3.07
2022-10-10T05:43:36.909Z,3.17
2022-10-10T05:46:04.401Z,2.77
2022-10-10T05:48:31.732Z,3.40
2022-10-10T05:51:05.955Z,3.03
2022-10-10T05:53:33.518Z,2.80
2022-10-10T05:56:03.711Z,2.83
2022-10-10T05:58:30.919Z,3.50
2022-10-10T06:01:02.683Z,2.90
2022-10-10T06:03:31.218Z,2.80
2022-10-10T06:05:58.411Z,3.10
2022-10-10T06:08:25.626Z,2.73
2022-10-10T06:10:53.055Z,2.90
2022-10-10T06:13:24.271Z,2.77
2022-10-10T06:15:52.248Z,2.90
2022-10-10T06:18:19.467Z,3.10
2022-10-10T06:20:46.560Z,3.13
2022-10-10T06:23:13.732Z,2.87
2022-10-10T06:25:41.705Z,3.30
2022-10-10T06:28:09.670Z,3.40
2022-10-10T06:30:40.453Z,2.70
2022-10-10T06:33:07.693Z,3.10
2022-10-10T06:35:34.842Z,3.40
2022-10-10T06:38:01.925Z,3.10
2022-10-10T06:40:28.992Z,3.13
2022-10-10T06:42:56.091Z,3.20
2022-10-10T06:45:24.513Z,2.83
2022-10-10T06:47:51.562Z,3.07
2022-10-10T06:50:18.633Z,3.20
2022-10-10T06:52:45.821Z,3.10
2022-10-10T06:55:12.908Z,3.20
2022-10-10T06:57:39.993Z,3.30
2022-10-10T07:00:07.415Z,3.10
2022-10-10T07:02:34.547Z,3.10
2022-10-10T07:05:01.695Z,3.03
2022-10-10T07:07:28.771Z,3.00
2022-10-10T07:09:55.860Z,3.43
2022-10-10T07:12:22.987Z,3.07
2022-10-10T07:14:50.116Z,3.13
2022-10-10T07:17:17.220Z,2.47
2022-10-10T07:19:44.382Z,3.20
2022-10-10T07:22:11.465Z,5.87
2022-10-10T07:24:38.620Z,3.20
2022-10-10T07:27:08.784Z,2.90
2022-10-10T07:29:36.106Z,2.93
2022-10-10T07:32:03.292Z,2.83
2022-10-10T07:34:30.415Z,2.77
2022-10-10T07:36:57.506Z,2.70
2022-10-10T07:39:25.160Z,3.03
2022-10-10T07:41:52.577Z,3.03
2022-10-10T07:44:19.891Z,3.30
2022-10-10T07:46:47.429Z,2.83
2022-10-10T07:49:14.754Z,2.87
2022-10-10T07:51:41.890Z,2.90
2022-10-10T07:54:10.454Z,3.07
2022-10-10T07:56:37.558Z,2.90
2022-10-10T07:59:04.698Z,2.80
2022-10-10T08:01:31.824Z,3.00
2022-10-10T08:03:58.905Z,2.50
2022-10-10T08:06:26.074Z,3.10
2022-10-10T08:08:53.214Z,3.00
2022-10-10T08:11:21.623Z,2.70
2022-10-10T08:13:49.169Z,2.53
2022-10-10T08:16:16.297Z,3.03
2022-10-10T08:18:43.685Z,2.73
2022-10-10T08:21:12.389Z,2.80
2022-10-10T08:23:39.562Z,2.60
2022-10-10T08:26:07.689Z,2.93
2022-10-10T08:28:35.392Z,3.07
2022-10-10T08:31:09.721Z,2.90
2022-10-10T08:33:36.860Z,2.90
2022-10-10T08:36:08.189Z,2.47
2022-10-10T08:38:35.773Z,3.00
2022-10-10T08:41:08.088Z,2.77
2022-10-10T08:43:44.923Z,2.80
2022-10-10T08:46:16.863Z,4.00
2022-10-10T08:48:44.903Z,3.30
2022-10-10T08:51:14.687Z,2.60
2022-10-10T08:53:44.494Z,2.83
2022-10-10T08:56:17.638Z,2.60
2022-10-10T08:58:47.477Z,2.50
2022-10-10T09:01:23.766Z,2.53
2022-10-10T09:03:54.713Z,2.60
2022-10-10T09:06:40.701Z,2.60
2022-10-10T09:09:14.584Z,2.53
2022-10-10T09:12:00.298Z,2.88
2022-10-10T09:14:33.868Z,2.93
2022-10-10T09:17:03.829Z,2.50
2022-10-10T09:19:50.289Z,3.10
2022-10-10T09:22:20.268Z,2.70
2022-10-10T09:24:53.331Z,2.53
2022-10-10T09:27:23.069Z,2.73
2022-10-10T09:29:52.924Z,2.67
2022-10-10T09:32:28.580Z,2.37
2022-10-10T09:34:59.439Z,2.90
2022-10-10T09:37:46.209Z,2.63
2022-10-10T09:40:14.718Z,2.73
2022-10-10T09:42:44.509Z,2.70
2022-10-10T09:45:24.102Z,2.83
2022-10-10T09:47:53.930Z,2.57
2022-10-10T09:50:21.516Z,4.60
2022-10-10T09:52:51.010Z,2.37
2022-10-10T09:55:24.660Z,2.70
2022-10-10T09:57:53.306Z,2.90
2022-10-10T10:00:20.396Z,2.27
2022-10-10T10:02:51.122Z,2.43
2022-10-10T10:05:19.503Z,2.50
2022-10-10T10:07:48.448Z,2.63
2022-10-10T10:10:20.632Z,2.20
2022-10-10T10:12:48.192Z,2.63
2022-10-10T10:15:26.282Z,2.87
2022-10-10T10:18:12.151Z,2.87
2022-10-10T10:20:40.535Z,2.78
2022-10-10T10:23:23.194Z,2.70
2022-10-10T10:26:03.855Z,2.93
2022-10-10T10:28:31.028Z,2.60
2022-10-10T10:30:59.141Z,2.87
2022-10-10T10:33:26.270Z,2.50
2022-10-10T10:36:16.988Z,2.60
2022-10-10T10:38:50.991Z,2.70
2022-10-10T10:41:24.366Z,2.87
2022-10-10T10:44:03.434Z,2.90
2022-10-10T10:46:44.915Z,3.07
2022-10-10T10:49:41.083Z,2.60
2022-10-10T10:52:18.274Z,2.90
2022-10-10T10:54:45.636Z,3.27
2022-10-10T10:57:40.516Z,2.50
2022-10-10T11:00:26.073Z,2.80
2022-10-10T11:03:35.175Z,3.10
2022-10-10T11:05:58.293Z,3.23
2022-10-10T11:08:28.788Z,2.60
2022-10-10T11:11:06.391Z,2.50
2022-10-10T11:13:41.510Z,2.70
2022-10-10T11:16:43.962Z,2.60
2022-10-10T11:19:12.351Z,2.40
2022-10-10T11:21:42.159Z,2.67
2022-10-10T11:24:28.148Z,2.90
2022-10-10T11:26:56.915Z,2.50
2022-10-10T11:29:26.418Z,2.80
2022-10-10T11:32:14.386Z,2.60
2022-10-10T11:35:04.618Z,3.27
2022-10-10T11:37:33.774Z,2.63
2022-10-10T11:40:03.839Z,2.30
2022-10-10T11:42:34.263Z,2.80
2022-10-10T11:45:05.882Z,2.87
2022-10-10T11:47:35.932Z,2.43
2022-10-10T11:50:21.563Z,2.50
2022-10-10T11:53:01.327Z,2.60
2022-10-10T11:55:44.053Z,2.67
2022-10-10T11:58:11.403Z,2.80
2022-10-10T12:00:42.436Z,3.20
2022-10-10T12:03:09.921Z,2.80
2022-10-10T12:05:39.811Z,2.90
2022-10-10T12:08:17.988Z,2.80
2022-10-10T12:10:49.499Z,2.93
2022-10-10T12:13:32.146Z,2.80
2022-10-10T12:16:03.210Z,2.87
2022-10-10T12:18:32.269Z,2.77
2022-10-10T12:21:07.366Z,2.77
2022-10-10T12:23:34.667Z,2.90
2022-10-10T12:26:02.326Z,2.73
2022-10-10T12:28:34.755Z,2.90
2022-10-10T12:31:05.178Z,3.07
2022-10-10T12:33:32.568Z,2.70
2022-10-10T12:36:21.434Z,2.60
2022-10-10T12:39:10.439Z,2.47
2022-10-10T12:41:47.416Z,2.30
2022-10-10T12:44:26.306Z,2.50
2022-10-10T12:47:12.148Z,2.50
2022-10-10T12:49:39.296Z,3.00
2022-10-10T12:52:12.768Z,2.70
2022-10-10T12:54:42.519Z,2.60
2022-10-10T12:57:09.618Z,2.60
2022-10-10T12:59:37.794Z,2.90
2022-10-10T13:02:11.207Z,3.10
2022-10-10T13:04:41.502Z,3.10
2022-10-10T13:07:11.374Z,2.83
2022-10-10T13:09:38.611Z,2.70
2022-10-10T13:12:06.931Z,2.70
2022-10-10T13:14:45.142Z,2.93
2022-10-10T13:17:32.204Z,3.03
2022-10-10T13:20:01.346Z,3.00
2022-10-10T13:22:32.240Z,2.83
2022-10-10T13:25:00.618Z,2.77
2022-10-10T13:27:32.337Z,3.17
2022-10-10T13:30:00.673Z,2.70
2022-10-10T13:32:33.103Z,3.07
2022-10-10T13:35:01.670Z,2.93
2022-10-10T13:37:29.334Z,2.63
2022-10-10T13:39:56.623Z,3.07
2022-10-10T13:42:31.796Z,3.23
2022-10-10T13:45:00.460Z,2.77
2022-10-10T13:47:42.682Z,2.93
2022-10-10T13:50:19.279Z,2.80
2022-10-10T13:52:46.439Z,2.80
2022-10-10T13:55:23.115Z,3.30
2022-10-10T13:57:51.312Z,3.10
2022-10-10T14:00:19.500Z,3.00
2022-10-10T14:02:46.731Z,3.40
2022-10-10T14:05:27.552Z,3.00
2022-10-10T14:07:55.116Z,2.80
2022-10-10T14:10:24.287Z,3.07
2022-10-10T14:12:56.768Z,3.43
2022-10-10T14:15:42.070Z,3.13
2022-10-10T14:18:25.624Z,3.37
2022-10-10T14:20:53.536Z,3.10
2022-10-10T14:23:20.711Z,2.90
2022-10-10T14:25:49.046Z,2.90
2022-10-10T14:28:17.710Z,3.20
2022-10-10T14:30:45.160Z,3.10
2022-10-10T14:33:13.363Z,2.70
2022-10-10T14:35:40.680Z,3.30
2022-10-10T14:38:07.845Z,3.30
2022-10-10T14:40:35.208Z,2.70
2022-10-10T14:43:02.407Z,2.80
2022-10-10T14:45:29.563Z,3.20
2022-10-10T14:47:56.677Z,3.43
2022-10-10T14:50:25.590Z,3.07
2022-10-10T14:52:52.679Z,3.10
2022-10-10T14:55:19.784Z,3.40
2022-10-10T14:57:46.877Z,3.27
2022-10-10T15:00:18.591Z,3.97
2022-10-10T15:02:46.218Z,3.13
2022-10-10T15:05:13.664Z,3.20
2022-10-10T15:07:40.891Z,3.40
2022-10-10T15:10:32.820Z,3.33
2022-10-10T15:12:55.813Z,3.33
2022-10-10T15:15:22.892Z,3.13
2022-10-10T15:17:49.975Z,3.30
2022-10-10T15:20:17.237Z,3.40
2022-10-10T15:22:45.973Z,3.17
2022-10-10T15:25:13.059Z,2.70
2022-10-10T15:27:40.176Z,3.30
2022-10-10T15:30:07.719Z,3.27
2022-10-10T15:32:37.780Z,3.40
2022-10-10T15:35:04.924Z,3.07
2022-10-10T15:37:31.980Z,3.47
2022-10-10T15:39:59.078Z,3.23
2022-10-10T15:42:26.185Z,3.77
2022-10-10T15:44:53.341Z,3.23
2022-10-10T15:47:20.862Z,3.50
2022-10-10T15:49:48.178Z,3.70
2022-10-10T15:52:15.655Z,3.70
2022-10-10T15:54:42.806Z,3.60
2022-10-10T15:57:09.874Z,3.60
2022-10-10T15:59:39.282Z,3.43
2022-10-10T16:02:11.109Z,3.40
2022-10-10T16:04:38.678Z,3.60
2022-10-10T16:07:25.455Z,3.37
2022-10-10T16:09:53.454Z,4.17
2022-10-10T16:12:20.574Z,3.90
2022-10-10T16:14:47.777Z,3.57
2022-10-10T16:17:17.502Z,3.73
2022-10-10T16:19:46.618Z,3.60
2022-10-10T16:22:13.705Z,3.43
2022-10-10T16:24:40.782Z,4.13
2022-10-10T16:27:07.847Z,3.63
2022-10-10T16:29:34.928Z,3.60
2022-10-10T16:32:02.047Z,4.00
2022-10-10T16:34:29.118Z,3.93
2022-10-10T16:36:56.179Z,3.80
2022-10-10T16:39:23.395Z,4.03
2022-10-10T16:41:50.489Z,4.17
2022-10-10T16:44:17.978Z,4.10
2022-10-10T16:46:45.476Z,4.70
2022-10-10T16:49:14.229Z,4.60
2022-10-10T16:51:41.332Z,4.13
2022-10-10T16:54:08.723Z,4.03
2022-10-10T16:56:35.924Z,4.00
2022-10-10T16:59:03.503Z,3.97
2022-10-10T17:01:30.709Z,4.70
2022-10-10T17:04:01.480Z,4.43
2022-10-10T17:06:34.807Z,4.23
2022-10-10T17:09:02.775Z,5.00
2022-10-10T17:11:30.159Z,4.53
2022-10-10T17:13:57.242Z,4.70
2022-10-10T17:19:12.330Z,4.50
2022-10-10T17:21:39.448Z,4.77
2022-10-10T17:24:06.728Z,5.10
2022-10-10T17:26:33.840Z,5.10
2022-10-10T17:29:01.051Z,5.60
2022-10-10T17:31:28.338Z,5.30
2022-10-10T17:34:10.383Z,5.00
2022-10-10T17:36:37.495Z,5.50
2022-10-10T17:39:04.645Z,5.40
2022-10-10T17:41:33.255Z,5.70
2022-10-10T17:44:00.419Z,5.53
2022-10-10T17:46:34.810Z,6.27
2022-10-10T17:49:04.665Z,6.80
2022-10-10T17:51:31.857Z,6.70
2022-10-10T17:54:03.304Z,6.47
2022-10-10T17:56:31.229Z,6.20
2022-10-10T17:59:01.305Z,6.37
2022-10-10T18:01:30.673Z,6.10
2022-10-10T18:03:58.181Z,7.00
2022-10-10T18:06:25.427Z,6.13
2022-10-10T18:08:53.710Z,4.50
2022-10-10T18:11:22.235Z,4.47
2022-10-10T18:13:49.432Z,4.07
2022-10-10T18:16:17.680Z,3.10
2022-10-10T18:18:50.378Z,3.43
2022-10-10T18:21:18.007Z,2.70
2022-10-10T18:23:45.187Z,2.67
2022-10-10T18:26:13.370Z,2.57
2022-10-10T18:28:42.390Z,2.90
2022-10-10T18:31:13.652Z,2.77
2022-10-10T18:33:41.514Z,2.67
2022-10-10T18:36:09.020Z,2.83
2022-10-10T18:38:36.193Z,2.40
2022-10-10T18:41:04.538Z,2.50
2022-10-10T18:43:32.100Z,2.60
2022-10-10T18:45:59.911Z,2.20
2022-10-10T18:48:27.008Z,2.40
2022-10-10T18:51:00.218Z,2.40
2022-10-10T18:53:27.583Z,2.27
2022-10-10T18:55:55.514Z,2.37
2022-10-10T18:58:22.601Z,2.10
2022-10-10T19:00:49.732Z,2.30
2022-10-10T19:03:17.020Z,2.33
2022-10-10T19:05:44.094Z,2.03
2022-10-10T19:08:11.182Z,2.30
2022-10-10T19:10:46.617Z,2.27
2022-10-10T19:13:13.864Z,2.27
2022-10-10T19:15:40.971Z,2.37
2022-10-10T19:18:08.502Z,2.10
2022-10-10T19:20:36.002Z,2.10
2022-10-10T19:23:03.274Z,2.07
2022-10-10T19:25:31.930Z,2.20
2022-10-10T19:27:59.040Z,2.00
2022-10-10T19:30:28.096Z,2.50
2022-10-10T19:32:55.168Z,2.50
2022-10-10T19:35:22.279Z,2.10
2022-10-10T19:37:49.352Z,2.30
2022-10-10T19:40:16.441Z,2.60
2022-10-10T19:42:43.505Z,2.30
2022-10-10T19:45:10.790Z,2.53
2022-10-10T19:47:37.908Z,2.33
2022-10-10T19:50:05.076Z,2.73
2022-10-10T19:52:32.148Z,2.13
2022-10-10T19:54:59.242Z,2.60
2022-10-10T19:57:26.355Z,2.50
2022-10-10T19:59:53.890Z,2.10
2022-10-10T20:02:20.967Z,2.23
2022-10-10T20:04:48.124Z,2.17
2022-10-10T20:07:15.202Z,2.50
2022-10-10T20:09:42.286Z,2.77
2022-10-10T20:12:09.372Z,2.13
2022-10-10T20:14:36.469Z,2.10
2022-10-10T20:17:03.609Z,1.87
2022-10-10T20:19:30.685Z,2.20
2022-10-10T20:21:57.749Z,2.10
2022-10-10T20:24:24.827Z,2.07
2022-10-10T20:26:52.024Z,2.10
2022-10-10T20:29:19.134Z,2.00
2022-10-10T20:31:46.201Z,2.17
2022-10-10T20:34:13.263Z,2.60
2022-10-10T20:36:40.415Z,2.67
2022-10-10T20:39:09.003Z,2.77
2022-10-10T20:41:37.689Z,2.50
2022-10-10T20:44:05.740Z,2.80
2022-10-10T20:46:34.839Z,2.60
2022-10-10T20:49:02.832Z,2.27
2022-10-10T20:51:29.970Z,2.57
2022-10-10T20:53:58.495Z,2.70
2022-10-10T20:56:26.008Z,2.60
2022-10-10T20:58:53.899Z,2.60
2022-10-10T21:01:22.328Z,3.20
2022-10-10T21:03:49.499Z,2.60
2022-10-10T21:06:18.052Z,2.97
2022-10-10T21:08:45.145Z,2.60
2022-10-10T21:11:13.200Z,3.10
2022-10-10T21:13:41.572Z,2.40
2022-10-10T21:16:09.973Z,2.73
2022-10-10T21:18:37.181Z,2.50
2022-10-10T21:21:05.161Z,2.50
2022-10-10T21:23:34.673Z,3.17
2022-10-10T21:26:09.002Z,2.60
2022-10-10T21:28:36.522Z,2.50
2022-10-10T21:31:04.228Z,2.40
2022-10-10T21:33:31.751Z,2.53
2022-10-10T21:35:59.064Z,2.47
2022-10-10T21:38:26.385Z,2.60
2022-10-10T21:40:53.678Z,3.33
2022-10-10T21:43:20.854Z,3.20
2022-10-10T21:45:48.049Z,2.73
2022-10-10T21:48:15.272Z,2.77
2022-10-10T21:50:42.338Z,2.97
2022-10-10T21:53:09.521Z,3.27
2022-10-10T21:55:38.844Z,2.67
2022-10-10T21:58:06.247Z,2.70
2022-10-10T22:00:33.620Z,2.43
2022-10-10T22:03:00.850Z,3.40
2022-10-10T22:05:27.937Z,2.77
2022-10-10T22:07:54.995Z,2.90
2022-10-10T22:10:22.268Z,2.53
2022-10-10T22:12:49.347Z,3.30
2022-10-10T22:15:16.641Z,2.63
2022-10-10T22:17:43.883Z,3.30
2022-10-10T22:20:11.597Z,3.40
2022-10-10T22:22:39.786Z,3.00
2022-10-10T22:25:10.943Z,3.30
2022-10-10T22:27:38.483Z,3.00
2022-10-10T22:30:06.634Z,3.00
2022-10-10T22:32:34.118Z,3.27
2022-10-10T22:35:01.591Z,2.97
2022-10-10T22:37:28.697Z,3.13
2022-10-10T22:39:56.148Z,2.90
2022-10-10T22:42:23.312Z,3.47
2022-10-10T22:44:50.540Z,3.20
2022-10-10T22:47:17.759Z,3.47
2022-10-10T22:49:44.986Z,3.13
2022-10-10T22:52:12.062Z,3.50
2022-10-10T22:54:39.186Z,2.90
2022-10-10T22:57:06.281Z,3.30
2022-10-10T22:59:33.352Z,3.40
2022-10-10T23:02:00.459Z,3.20
2022-10-10T23:04:27.565Z,3.20
2022-10-10T23:06:54.634Z,3.43
2022-10-10T23:09:21.715Z,3.00
2022-10-10T23:11:48.860Z,3.40
2022-10-10T23:14:15.970Z,3.43
2022-10-10T23:16:43.078Z,3.33
2022-10-10T23:19:10.396Z,3.37
2022-10-10T23:21:37.675Z,3.50
2022-10-10T23:24:04.972Z,3.27
2022-10-10T23:26:32.275Z,3.50
2022-10-10T23:28:59.345Z,3.23
2022-10-10T23:31:26.432Z,3.00
2022-10-10T23:33:53.503Z,2.60
2022-10-10T23:36:20.713Z,3.30
2022-10-10T23:38:48.356Z,3.53
2022-10-10T23:41:15.484Z,3.50
2022-10-10T23:43:42.589Z,3.00
2022-10-10T23:46:09.694Z,3.07
2022-10-10T23:48:36.990Z,3.20
2022-10-10T23:51:04.382Z,3.53
2022-10-10T23:53:31.437Z,3.13
2022-10-10T23:55:58.628Z,3.13
2022-10-10T23:58:25.802Z,3.27
